Time;durP1;ratioP1;P1;durP2;ratioP2;P2;SDS_P1;SDS_P2;PMS_P1;PMS_P2;Temp;Humidity;BMP_temperature;BMP_pressure;BME280_temperature;BME280_humidity;BME280_pressure;Samples;Min_cycle;Max_cycle;Signal;HPM_P1;HPM_P2
2021/07/11 00:02:07;;;;;;;6.35;4.10;;;;;;;24.19;62.98;99990.13;4997189;28;20121;-72
2021/07/11 00:04:32;;;;;;;5.85;3.58;;;;;;;24.11;62.95;99988.78;4997023;28;20108;-73
2021/07/11 00:07:03;;;;;;;4.32;3.40;;;;;;;24.09;63.03;99988.47;4996937;28;20065;-71
2021/07/11 00:09:34;;;;;;;7.38;3.80;;;;;;;24.08;63.09;99990.50;4993308;28;20054;-72
2021/07/11 00:12:03;;;;;;;5.97;4.05;;;;;;;24.12;63.08;99996.03;4993968;28;20034;-72
2021/07/11 00:14:31;;;;;;;6.88;3.80;;;;;;;24.11;62.98;100000.16;4993641;28;20097;-71
2021/07/11 00:17:02;;;;;;;8.18;3.85;;;;;;;24.16;62.80;100003.19;4993815;28;20118;-72
2021/07/11 00:19:31;;;;;;;5.72;3.78;;;;;;;24.01;63.46;100000.06;4993552;28;20062;-72
2021/07/11 00:21:59;;;;;;;6.20;4.03;;;;;;;24.01;63.53;100002.09;4993803;28;20034;-72
2021/07/11 00:24:25;;;;;;;8.57;5.07;;;;;;;24.05;63.06;100002.78;4993562;28;20034;-72
2021/07/11 00:26:52;;;;;;;9.10;4.43;;;;;;;24.04;63.35;100012.56;4993793;28;20030;-71
2021/07/11 00:29:21;;;;;;;7.63;4.80;;;;;;;23.99;63.17;99996.88;4993521;28;20030;-73
2021/07/11 00:31:49;;;;;;;9.05;4.93;;;;;;;23.99;63.12;100005.41;4993381;28;20055;-72
2021/07/11 00:34:19;;;;;;;7.47;4.82;;;;;;;23.98;63.20;100006.69;4993853;28;20038;-72
2021/07/11 00:36:50;;;;;;;13.95;7.03;;;;;;;23.92;63.41;100002.84;4992949;28;20085;-73
2021/07/11 00:39:20;;;;;;;7.50;5.45;;;;;;;23.88;63.34;100005.00;4993336;28;20042;-73
2021/07/11 00:41:48;;;;;;;8.65;5.80;;;;;;;23.90;63.43;100007.38;4992648;28;20037;-72
2021/07/11 00:44:19;;;;;;;9.35;5.75;;;;;;;23.88;63.20;99993.63;4993170;28;20030;-72
2021/07/11 00:46:45;;;;;;;13.18;6.05;;;;;;;23.87;63.46;99992.06;4993139;28;20026;-72
2021/07/11 00:49:15;;;;;;;7.03;5.47;;;;;;;23.87;63.29;99991.25;4993094;28;20057;-72
2021/07/11 00:51:46;;;;;;;10.40;6.53;;;;;;;23.79;63.83;99988.66;4993078;28;20069;-72
2021/07/11 00:54:17;;;;;;;12.02;6.15;;;;;;;23.79;63.28;99985.00;4993606;28;20030;-73
2021/07/11 00:56:45;;;;;;;8.88;5.38;;;;;;;23.74;63.78;99988.44;4993144;28;20030;-72
2021/07/11 00:59:16;;;;;;;7.50;4.90;;;;;;;23.74;63.45;99985.59;4993066;28;20092;-72
2021/07/11 01:02:09;;;;;;;4.68;4.18;;;;;;;23.67;63.54;99980.94;4993008;28;20042;-73
2021/07/11 01:04:44;;;;;;;8.63;5.28;;;;;;;23.73;63.11;99981.16;4988556;28;20580;-74
2021/07/11 01:07:14;;;;;;;10.27;4.95;;;;;;;23.57;63.90;99970.72;4992970;28;20076;-72
2021/07/11 01:09:47;;;;;;;8.25;4.70;;;;;;;23.57;64.11;99982.06;4992436;28;20146;-72
2021/07/11 01:12:20;;;;;;;7.47;4.20;;;;;;;23.42;63.75;99973.22;4993967;28;20031;-74
2021/07/11 01:14:54;;;;;;;5.55;3.75;;;;;;;23.35;64.32;99976.31;4994178;28;20109;-72
2021/07/11 01:17:25;;;;;;;8.68;3.72;;;;;;;23.31;64.08;99972.00;4992618;28;20034;-72
2021/07/11 01:20:21;;;;;;;6.85;4.22;;;;;;;23.12;64.89;99976.69;4993389;28;20357;-72
2021/07/11 01:22:59;;;;;;;5.35;3.83;;;;;;;23.15;65.53;99967.25;4993354;28;20027;-71
2021/07/11 01:25:53;;;;;;;7.88;3.88;;;;;;;23.10;65.00;99968.59;4993336;28;20117;-73
2021/07/11 01:28:23;;;;;;;7.20;3.35;;;;;;;22.97;65.74;99962.16;4993272;28;20026;-72
2021/07/11 01:30:54;;;;;;;7.68;3.67;;;;;;;23.07;65.27;99963.06;4992881;28;20157;-72
2021/07/11 01:33:22;;;;;;;7.53;3.95;;;;;;;23.16;65.25;99960.31;4993391;28;20113;-72
2021/07/11 01:35:49;;;;;;;6.57;3.38;;;;;;;23.19;65.09;99956.56;4993165;28;20030;-72
2021/07/11 01:38:21;;;;;;;4.45;3.30;;;;;;;23.22;64.95;99958.50;4992589;28;20117;-72
2021/07/11 01:40:55;;;;;;;6.22;3.30;;;;;;;23.29;64.98;99957.50;4992851;28;20384;-73
2021/07/11 01:43:22;;;;;;;4.15;3.72;;;;;;;23.28;64.57;99953.84;4992558;28;20038;-74
2021/07/11 01:45:53;;;;;;;6.57;3.42;;;;;;;23.29;64.56;99949.75;4993054;28;20038;-73
2021/07/11 01:48:24;;;;;;;5.97;3.67;;;;;;;23.37;64.19;99958.81;4992535;28;20038;-72
2021/07/11 01:50:55;;;;;;;4.18;3.30;;;;;;;23.43;64.13;99968.34;4992761;28;20381;-72
2021/07/11 01:53:39;;;;;;;4.93;3.33;;;;;;;23.41;64.17;99965.19;4995333;28;20350;-71
2021/07/11 01:56:06;;;;;;;7.85;3.53;;;;;;;23.42;64.33;99961.88;4997062;28;20076;-73
2021/07/11 01:58:38;;;;;;;9.70;3.75;;;;;;;23.44;64.18;99964.28;4996844;28;20033;-71
2021/07/11 02:01:08;;;;;;;3.95;3.20;;;;;;;23.54;63.47;99957.41;4996196;28;20066;-72
2021/07/11 02:03:38;;;;;;;7.80;3.80;;;;;;;23.44;63.97;99959.41;4996157;28;20056;-73
2021/07/11 02:06:12;;;;;;;5.53;3.13;;;;;;;23.42;64.07;99956.19;4997399;28;20038;-73
2021/07/11 02:08:43;;;;;;;5.40;3.88;;;;;;;23.37;64.39;99958.81;4995665;28;20042;-72
2021/07/11 02:11:12;;;;;;;5.43;2.83;;;;;;;23.33;64.55;99964.63;4995978;28;20026;-72
2021/07/11 02:13:48;;;;;;;4.80;3.42;;;;;;;23.28;65.09;99962.38;4995956;28;20042;-72
2021/07/11 02:16:40;;;;;;;8.57;3.83;;;;;;;23.17;65.12;99956.22;4995810;28;20033;-72
2021/07/11 02:19:09;;;;;;;4.97;3.03;;;;;;;23.15;65.40;99955.91;4990859;28;20489;-73
2021/07/11 02:21:39;;;;;;;7.95;3.40;;;;;;;23.25;64.81;99963.28;4995109;28;20034;-72
2021/07/11 02:24:05;;;;;;;5.60;3.13;;;;;;;23.37;64.74;99959.63;4996328;28;20030;-72
2021/07/11 02:26:35;;;;;;;7.13;3.40;;;;;;;23.33;64.61;99958.13;4995658;28;20026;-72
2021/07/11 02:29:03;;;;;;;6.70;3.85;;;;;;;23.24;65.00;99953.16;4995729;28;20027;-72
2021/07/11 02:31:35;;;;;;;9.70;3.75;;;;;;;23.18;65.00;99952.94;4995553;28;20034;-72
2021/07/11 02:34:04;;;;;;;5.43;2.90;;;;;;;23.26;64.52;99959.97;4995520;28;20038;-72
2021/07/11 02:36:32;;;;;;;6.65;3.38;;;;;;;23.29;64.68;99966.78;4995414;28;20140;-71
2021/07/11 02:39:06;;;;;;;6.90;3.90;;;;;;;23.40;64.18;99960.75;4995457;28;20036;-72
2021/07/11 02:41:34;;;;;;;5.20;3.42;;;;;;;23.32;64.40;99957.34;4995411;28;20034;-72
2021/07/11 02:44:07;;;;;;;5.93;3.33;;;;;;;23.26;64.66;99970.53;4995595;28;20052;-72
2021/07/11 02:46:39;;;;;;;3.60;3.00;;;;;;;23.19;64.85;99950.91;4995848;28;20481;-72
2021/07/11 02:49:16;;;;;;;8.87;2.93;;;;;;;23.29;64.85;99949.75;4995271;28;20768;-72
2021/07/11 02:51:48;;;;;;;2.97;2.58;;;;;;;23.20;64.94;99947.59;4995494;28;20034;-72
2021/07/11 02:54:19;;;;;;;5.53;3.08;;;;;;;23.16;65.35;99954.63;4995417;28;20061;-71
2021/07/11 02:56:51;;;;;;;4.97;3.75;;;;;;;23.12;65.26;99953.97;4995611;28;20041;-73
2021/07/11 02:59:22;;;;;;;5.57;3.38;;;;;;;23.09;65.40;99954.88;4995118;28;20124;-73
2021/07/11 03:01:50;;;;;;;6.38;3.17;;;;;;;23.13;65.33;99955.56;4995026;28;20035;-73
2021/07/11 03:04:27;;;;;;;5.00;3.13;;;;;;;23.09;65.28;99954.88;4994404;28;20093;-72
2021/07/11 03:06:58;;;;;;;5.95;3.22;;;;;;;23.07;65.34;99960.22;4994983;28;20034;-72
2021/07/11 03:09:26;;;;;;;6.63;4.05;;;;;;;23.06;65.55;99961.44;4994663;28;20062;-72
2021/07/11 03:11:53;;;;;;;5.40;3.30;;;;;;;23.17;65.14;99959.06;4995426;28;20026;-73
2021/07/11 03:14:22;;;;;;;8.00;3.72;;;;;;;23.15;65.22;99959.53;4994991;28;20477;-73
2021/07/11 03:16:53;;;;;;;5.47;3.95;;;;;;;23.17;65.15;99964.72;4994688;28;20034;-73
2021/07/11 03:19:22;;;;;;;5.85;3.75;;;;;;;23.02;65.94;99966.47;4994704;28;20097;-74
2021/07/11 03:21:53;;;;;;;3.65;3.30;;;;;;;22.99;66.11;99965.31;4994737;28;20033;-72
2021/07/11 03:24:29;;;;;;;6.85;3.53;;;;;;;22.95;65.98;99973.13;4995732;28;20026;-73
2021/07/11 03:26:56;;;;;;;6.70;3.60;;;;;;;22.90;66.67;99971.66;4995183;28;20057;-72
2021/07/11 03:29:53;;;;;;;8.13;6.43;;;;;;;22.93;66.78;99984.94;4994867;28;20030;-72
2021/07/11 03:32:23;;;;;;;10.82;7.50;;;;;;;22.95;66.44;99984.47;4977619;28;20039;-72
2021/07/11 03:34:52;;;;;;;7.20;6.30;;;;;;;22.96;66.43;99980.41;4994771;28;20378;-72
2021/07/11 03:37:24;;;;;;;6.03;5.28;;;;;;;23.00;65.91;99976.19;4994711;28;20108;-72
2021/07/11 03:39:52;;;;;;;13.32;7.00;;;;;;;23.06;65.70;99981.31;4995719;28;20087;-72
2021/07/11 03:42:20;;;;;;;6.45;4.45;;;;;;;23.02;65.95;99981.44;4994340;28;20149;-72
2021/07/11 03:44:49;;;;;;;7.18;5.78;;;;;;;23.07;65.70;99978.03;4994345;28;20030;-72
2021/07/11 03:47:19;;;;;;;8.32;5.40;;;;;;;23.10;65.69;99976.31;4978840;28;20363;-71
2021/07/11 03:49:51;;;;;;;9.68;4.15;;;;;;;23.15;65.65;99981.44;4978710;28;20034;-72
2021/07/11 03:52:25;;;;;;;6.25;3.33;;;;;;;23.09;65.70;99981.22;4994157;28;20034;-72
2021/07/11 03:54:55;;;;;;;7.63;3.40;;;;;;;23.12;65.84;99982.34;4994344;28;20041;-72
2021/07/11 03:57:30;;;;;;;4.03;2.92;;;;;;;23.14;65.69;99985.53;4994234;28;20085;-72
2021/07/11 04:00:03;;;;;;;7.50;3.05;;;;;;;23.18;65.76;99986.22;4994033;28;20128;-72
2021/07/11 04:02:32;;;;;;;4.68;3.13;;;;;;;23.21;65.96;99988.91;4994498;28;20026;-73
2021/07/11 04:05:09;;;;;;;6.60;4.63;;;;;;;23.21;65.60;99997.44;4993883;28;20089;-72
2021/07/11 04:07:38;;;;;;;8.32;5.20;;;;;;;23.32;64.98;100002.75;4995861;28;20038;-73
2021/07/11 04:10:07;;;;;;;10.13;5.75;;;;;;;23.56;64.84;99991.06;4997615;28;20504;-72
2021/07/11 04:12:36;;;;;;;11.73;6.60;;;;;;;23.93;63.47;99995.88;4997539;28;20030;-72
2021/07/11 04:15:02;;;;;;;7.50;4.47;;;;;;;24.22;62.13;100012.72;4996816;28;20037;-71
2021/07/11 04:17:35;;;;;;;6.95;3.53;;;;;;;24.54;60.50;100014.41;4996133;28;20117;-72
2021/07/11 04:20:03;;;;;;;3.90;2.90;;;;;;;24.74;59.91;100022.63;4997743;28;20101;-72
2021/07/11 04:22:29;;;;;;;5.60;3.58;;;;;;;25.03;59.36;100016.59;4997631;28;20124;-72
2021/07/11 04:24:55;;;;;;;5.43;2.60;;;;;;;25.29;58.45;100014.38;4980686;28;20084;-73
2021/07/11 04:27:25;;;;;;;3.83;2.67;;;;;;;25.59;57.83;100009.91;4997320;28;20025;-72
2021/07/11 04:29:57;;;;;;;5.47;2.80;;;;;;;25.88;56.70;100020.13;4996717;28;20120;-73
2021/07/11 04:32:25;;;;;;;6.28;3.20;;;;;;;26.22;55.85;100021.13;5014297;28;20029;-72
2021/07/11 04:34:50;;;;;;;4.35;2.63;;;;;;;26.42;54.86;100024.34;4996606;28;20041;-72
2021/07/11 04:37:19;;;;;;;7.13;2.97;;;;;;;26.44;54.34;100021.78;4996456;28;20030;-72
2021/07/11 04:39:52;;;;;;;4.90;2.72;;;;;;;26.52;54.81;100010.84;4996702;28;20491;-71
2021/07/11 04:42:20;;;;;;;4.80;3.17;;;;;;;26.70;55.34;100024.31;4996741;28;20424;-71
2021/07/11 04:44:51;;;;;;;4.13;2.80;;;;;;;27.24;52.41;100025.47;5013877;28;20030;-71
2021/07/11 04:47:20;;;;;;;5.93;2.72;;;;;;;27.63;51.51;100034.94;4996992;28;20025;-72
2021/07/11 04:49:51;;;;;;;7.90;2.80;;;;;;;27.94;50.71;100034.66;4996723;28;20048;-71
2021/07/11 04:52:21;;;;;;;5.03;2.40;;;;;;;28.03;50.12;100036.66;5014240;28;20021;-72
2021/07/11 04:54:52;;;;;;;4.82;2.33;;;;;;;28.47;49.33;100051.13;4996324;28;20030;-72
2021/07/11 04:57:21;;;;;;;6.30;3.08;;;;;;;28.73;48.75;100044.84;4996440;28;20026;-72
2021/07/11 04:59:49;;;;;;;3.72;3.08;;;;;;;28.89;48.03;100052.97;4996486;28;20493;-72
2021/07/11 05:02:17;;;;;;;5.03;2.80;;;;;;;29.16;47.36;100052.69;4995761;28;20038;-71
2021/07/11 05:04:43;;;;;;;4.72;3.00;;;;;;;29.27;46.95;100052.09;4996094;28;20030;-72
2021/07/11 05:07:13;;;;;;;10.52;3.70;;;;;;;29.72;45.93;100049.94;4996052;28;20164;-72
2021/07/11 05:09:44;;;;;;;4.90;2.75;;;;;;;29.81;46.21;100058.44;4995826;28;20064;-72
2021/07/11 05:12:13;;;;;;;4.32;2.65;;;;;;;30.23;44.65;100054.31;4995975;28;20065;-72
2021/07/11 05:14:44;;;;;;;5.35;3.10;;;;;;;30.45;44.29;100059.56;4996040;28;20036;-72
2021/07/11 05:17:12;;;;;;;4.15;2.70;;;;;;;30.47;44.64;100056.97;4995894;28;20125;-72
2021/07/11 05:19:42;;;;;;;5.95;3.25;;;;;;;30.93;43.46;100059.06;4996333;28;20388;-71
2021/07/11 05:22:12;;;;;;;6.40;2.95;;;;;;;31.00;42.72;100055.72;4996049;28;20026;-72
2021/07/11 05:24:40;;;;;;;3.95;2.75;;;;;;;31.23;42.67;100059.59;4996249;28;20042;-71
2021/07/11 05:27:11;;;;;;;9.80;3.20;;;;;;;31.26;42.53;100056.50;4997046;28;20514;-73
2021/07/11 05:29:42;;;;;;;4.65;2.33;;;;;;;30.89;42.44;100059.28;5000291;28;20029;-72
2021/07/11 05:32:10;;;;;;;5.72;2.72;;;;;;;29.65;45.81;100061.84;4999951;28;20026;-72
2021/07/11 05:34:38;;;;;;;3.95;2.60;;;;;;;30.02;44.58;100056.38;4999983;28;20117;-72
2021/07/11 05:37:06;;;;;;;4.35;2.42;;;;;;;30.34;44.54;100057.34;4999800;28;20030;-74
2021/07/11 05:39:34;;;;;;;9.00;3.20;;;;;;;30.36;44.18;100063.38;4999514;28;20029;-72
2021/07/11 05:42:00;;;;;;;2.88;2.20;;;;;;;30.41;44.35;100064.72;4999821;28;20102;-72
2021/07/11 05:44:28;;;;;;;2.78;2.10;;;;;;;30.64;43.78;100068.66;4999771;28;20041;-73
2021/07/11 05:46:56;;;;;;;4.30;2.38;;;;;;;30.33;44.65;100066.47;4999819;28;20026;-72
2021/07/11 05:49:27;;;;;;;3.88;2.42;;;;;;;29.37;47.37;100069.97;4999315;28;20041;-73
2021/07/11 05:51:57;;;;;;;6.97;2.65;;;;;;;30.03;45.86;100063.69;4999515;28;20070;-72
2021/07/11 05:54:28;;;;;;;2.65;2.08;;;;;;;30.58;44.08;100053.44;5016936;28;20030;-73
2021/07/11 05:56:58;;;;;;;4.53;2.20;;;;;;;30.40;44.76;100060.28;4999172;28;20473;-73
2021/07/11 05:59:29;;;;;;;4.05;2.50;;;;;;;30.15;45.40;100051.13;4999355;28;20038;-72
2021/07/11 06:01:59;;;;;;;6.05;2.50;;;;;;;29.98;45.51;100044.31;4999739;28;20054;-72
2021/07/11 06:04:27;;;;;;;3.92;2.30;;;;;;;29.92;46.07;100052.06;5016748;28;20449;-73
2021/07/11 06:06:56;;;;;;;5.50;3.13;;;;;;;29.24;47.39;100047.34;4999233;28;20026;-72
2021/07/11 06:09:27;;;;;;;12.73;4.90;;;;;;;29.22;47.38;100036.38;4995487;28;20092;-73
2021/07/11 06:11:55;;;;;;;7.53;4.18;;;;;;;29.08;48.36;100033.53;4996605;28;20037;-73
2021/07/11 06:14:25;;;;;;;7.35;3.72;;;;;;;29.87;46.97;100027.75;4996143;28;20093;-72
2021/07/11 06:16:54;;;;;;;6.72;3.42;;;;;;;30.08;46.30;100037.16;4996372;28;20048;-73
2021/07/11 06:19:22;;;;;;;4.53;3.03;;;;;;;30.42;46.04;100026.91;4995907;28;20043;-71
2021/07/11 06:21:52;;;;;;;7.45;3.38;;;;;;;30.08;46.90;100031.41;4996376;28;20048;-72
2021/07/11 06:24:21;;;;;;;6.85;3.20;;;;;;;30.26;46.38;100028.28;4996086;28;20093;-73
2021/07/11 06:26:50;;;;;;;6.63;3.22;;;;;;;30.70;45.31;100035.06;4995730;28;20034;-72
2021/07/11 06:29:21;;;;;;;4.53;2.95;;;;;;;30.89;45.11;100044.13;4996054;28;20023;-72
2021/07/11 06:31:47;;;;;;;5.82;2.63;;;;;;;31.45;43.34;100051.19;4995709;28;20026;-73
2021/07/11 06:34:15;;;;;;;3.90;2.88;;;;;;;31.98;42.54;100048.94;4996005;28;20034;-72
2021/07/11 06:36:44;;;;;;;5.97;3.10;;;;;;;31.59;42.76;100046.59;4995475;28;20035;-73
2021/07/11 06:39:11;;;;;;;4.28;2.83;;;;;;;31.40;43.41;100051.16;4994629;28;20081;-73
2021/07/11 06:41:37;;;;;;;6.78;2.70;;;;;;;31.36;43.95;100056.34;4995806;28;20100;-74
2021/07/11 06:44:05;;;;;;;5.47;3.47;;;;;;;30.63;45.61;100052.69;4995451;28;20022;-73
2021/07/11 06:46:34;;;;;;;4.22;2.72;;;;;;;30.76;45.48;100059.69;4995965;28;20030;-73
2021/07/11 06:49:02;;;;;;;7.20;2.90;;;;;;;30.90;45.18;100055.13;4995342;28;20030;-73
2021/07/11 06:51:35;;;;;;;4.60;2.65;;;;;;;30.97;44.74;100066.16;4995850;28;20369;-73
2021/07/11 06:54:03;;;;;;;4.07;2.33;;;;;;;31.59;44.06;100063.03;4995277;28;20465;-73
2021/07/11 06:56:29;;;;;;;3.67;2.65;;;;;;;31.67;43.13;100067.81;4995415;28;20053;-74
2021/07/11 06:59:00;;;;;;;4.22;2.60;;;;;;;31.86;42.99;100073.19;4995124;28;20465;-73
2021/07/11 07:01:28;;;;;;;7.63;3.78;;;;;;;32.16;42.16;100085.91;4995118;28;20030;-73
2021/07/11 07:03:56;;;;;;;7.78;2.67;;;;;;;32.69;41.09;100072.78;4995018;28;20027;-73
2021/07/11 07:06:27;;;;;;;6.85;3.10;;;;;;;32.68;40.87;100084.84;4996579;28;20030;-73
2021/07/11 07:08:56;;;;;;;4.75;3.08;;;;;;;32.81;41.01;100090.88;4994613;28;20050;-73
2021/07/11 07:11:21;;;;;;;6.82;2.92;;;;;;;32.68;41.23;100090.59;4994768;28;20038;-73
2021/07/11 07:13:47;;;;;;;8.55;3.00;;;;;;;32.68;41.13;100087.72;4994665;28;20129;-72
2021/07/11 07:16:15;;;;;;;4.30;2.83;;;;;;;33.59;39.12;100090.25;4995012;28;20113;-73
2021/07/11 07:18:43;;;;;;;3.70;2.60;;;;;;;34.39;37.45;100086.66;4995723;28;20034;-73
2021/07/11 07:21:12;;;;;;;6.80;2.95;;;;;;;33.94;38.67;100091.81;4994981;28;20096;-73
2021/07/11 07:23:40;;;;;;;5.15;3.30;;;;;;;32.66;41.02;100081.72;4995065;28;20034;-73
2021/07/11 07:26:11;;;;;;;7.03;3.25;;;;;;;32.84;41.03;100078.34;4995164;28;20497;-73
2021/07/11 07:28:38;;;;;;;6.13;2.85;;;;;;;33.24;39.51;100088.66;4994606;28;20124;-73
2021/07/11 07:31:09;;;;;;;2.90;2.05;;;;;;;34.03;37.84;100083.63;4995214;28;20030;-73
2021/07/11 07:33:35;;;;;;;4.95;2.40;;;;;;;34.48;37.09;100085.63;4995035;28;20421;-73
2021/07/11 07:36:04;;;;;;;3.25;1.85;;;;;;;34.34;36.90;100079.59;4994490;28;20026;-73
2021/07/11 07:38:32;;;;;;;6.95;2.20;;;;;;;33.14;38.61;100087.34;4996154;28;20034;-73
2021/07/11 07:41:00;;;;;;;3.03;2.00;;;;;;;32.92;39.30;100081.50;4993866;28;20031;-73
2021/07/11 07:43:28;;;;;;;6.75;3.20;;;;;;;32.57;40.27;100076.97;4994139;28;20034;-73
2021/07/11 07:45:58;;;;;;;3.50;1.60;;;;;;;31.66;41.87;100083.50;4994085;28;20029;-74
2021/07/11 07:48:26;;;;;;;2.75;2.20;;;;;;;32.02;41.55;100072.50;4994220;28;20038;-73
2021/07/11 07:50:55;;;;;;;6.97;2.50;;;;;;;32.03;41.55;100076.97;4994556;28;20417;-73
2021/07/11 07:53:21;;;;;;;3.35;2.10;;;;;;;31.35;43.21;100074.88;4994381;28;20428;-73
2021/07/11 07:55:49;;;;;;;4.80;2.53;;;;;;;31.88;42.12;100067.72;4994089;28;20037;-73
2021/07/11 07:58:20;;;;;;;4.38;2.10;;;;;;;32.26;41.20;100070.00;4994002;28;20069;-74
2021/07/11 08:00:50;;;;;;;5.00;1.90;;;;;;;32.46;41.63;100074.81;4994554;28;20109;-73
2021/07/11 08:03:18;;;;;;;3.30;1.83;;;;;;;32.53;40.95;100070.66;4994145;28;20117;-73
2021/07/11 08:05:49;;;;;;;6.32;1.60;;;;;;;33.67;38.78;100081.84;4993951;28;20031;-72
2021/07/11 08:08:20;;;;;;;3.75;1.60;;;;;;;33.02;39.49;100077.06;4993589;28;20046;-73
2021/07/11 08:10:51;;;;;;;3.85;1.60;;;;;;;33.13;38.60;100054.03;4993946;28;20121;-74
2021/07/11 08:13:19;;;;;;;7.38;1.88;;;;;;;33.67;37.39;100070.31;4993761;28;20030;-73
2021/07/11 08:15:48;;;;;;;2.70;1.80;;;;;;;34.45;36.27;100073.00;4994247;28;20031;-73
2021/07/11 08:18:14;;;;;;;3.80;2.00;;;;;;;34.40;36.72;100071.69;4993525;28;20030;-73
2021/07/11 08:20:44;;;;;;;3.83;1.92;;;;;;;33.49;38.49;100077.41;4994360;28;20026;-73
2021/07/11 08:23:12;;;;;;;5.80;1.83;;;;;;;33.26;38.70;100079.47;4993801;28;20469;-73
2021/07/11 08:25:43;;;;;;;4.15;1.58;;;;;;;33.02;39.36;100079.97;4993830;28;20137;-74
2021/07/11 08:28:10;;;;;;;3.65;2.17;;;;;;;33.76;38.13;100085.22;4993488;28;20042;-73
2021/07/11 08:30:39;;;;;;;2.38;1.67;;;;;;;34.21;37.02;100088.06;4993478;28;20117;-73
2021/07/11 08:33:07;;;;;;;3.58;1.90;;;;;;;34.84;35.66;100080.69;4993407;28;20038;-73
2021/07/11 08:35:35;;;;;;;5.78;1.70;;;;;;;35.33;35.13;100081.69;4993344;28;20033;-73
2021/07/11 08:38:07;;;;;;;4.78;2.10;;;;;;;35.42;34.79;100084.22;4993279;28;20469;-73
2021/07/11 08:40:35;;;;;;;1.80;1.63;;;;;;;35.71;33.83;100078.22;4993290;28;20078;-73
2021/07/11 08:43:03;;;;;;;2.30;1.98;;;;;;;34.20;36.29;100074.94;4993156;28;20042;-73
2021/07/11 08:45:32;;;;;;;5.07;1.83;;;;;;;33.33;37.90;100073.97;4993004;28;20121;-73
2021/07/11 08:48:03;;;;;;;3.50;1.60;;;;;;;34.81;35.74;100076.75;4993036;28;20080;-72
2021/07/11 08:50:35;;;;;;;2.95;1.70;;;;;;;34.27;35.99;100080.16;4992591;28;20030;-73
2021/07/11 08:53:03;;;;;;;2.25;1.48;;;;;;;35.02;34.99;100067.72;4992530;28;20027;-74
2021/07/11 08:55:34;;;;;;;2.70;1.60;;;;;;;34.76;34.81;100074.69;4992498;28;20030;-74
2021/07/11 08:58:04;;;;;;;3.35;1.60;;;;;;;34.75;34.66;100067.34;4992198;28;20058;-73
2021/07/11 09:00:35;;;;;;;2.63;1.50;;;;;;;34.99;34.61;100068.78;4992605;28;20057;-74
2021/07/11 09:03:06;;;;;;;1.70;1.60;;;;;;;34.23;36.43;100067.31;4992454;28;20037;-74
2021/07/11 09:05:39;;;;;;;4.45;1.70;;;;;;;34.46;35.93;100068.00;4992951;28;20030;-74
2021/07/11 09:08:15;;;;;;;3.88;1.58;;;;;;;34.23;36.55;100062.31;4997837;28;20104;-74
2021/07/11 09:10:50;;;;;;;4.43;2.05;;;;;;;34.14;36.70;100066.28;4996066;28;20481;-73
2021/07/11 09:13:19;;;;;;;2.85;1.75;;;;;;;33.59;37.46;100070.06;4996594;28;20038;-73
2021/07/11 09:15:50;;;;;;;4.68;1.85;;;;;;;34.88;35.12;100067.50;5014178;28;20365;-73
2021/07/11 09:18:25;;;;;;;3.25;2.03;;;;;;;34.41;36.21;100072.47;5013569;28;20038;-73
2021/07/11 09:21:01;;;;;;;2.13;1.60;;;;;;;34.30;36.79;100076.19;5013838;28;20469;-73
2021/07/11 09:23:28;;;;;;;3.22;1.55;;;;;;;34.60;36.60;100064.00;4995930;28;20026;-73
2021/07/11 09:26:12;;;;;;;3.10;1.40;;;;;;;35.21;34.99;100053.38;4995788;28;20026;-73
2021/07/11 09:28:53;;;;;;;3.67;1.50;;;;;;;34.70;35.44;100064.47;4995860;28;20053;-73
2021/07/11 09:31:23;;;;;;;3.65;1.63;;;;;;;34.62;35.75;100052.69;5013883;28;20087;-72
2021/07/11 09:33:58;;;;;;;2.05;1.50;;;;;;;34.87;36.14;100054.38;4995925;28;20033;-73
2021/07/11 09:36:27;;;;;;;2.53;1.20;;;;;;;35.25;35.18;100063.31;4995868;28;20026;-72
2021/07/11 09:39:00;;;;;;;1.85;1.40;;;;;;;34.81;35.84;100068.09;4995920;28;20025;-73
2021/07/11 09:41:34;;;;;;;2.38;1.90;;;;;;;34.64;34.07;100073.19;4996476;28;20061;-73
2021/07/11 09:44:04;;;;;;;2.65;1.50;;;;;;;34.51;35.02;100062.22;4995795;28;20032;-72
2021/07/11 09:46:36;;;;;;;2.70;1.75;;;;;;;35.43;33.83;100061.88;4995637;28;20058;-73
2021/07/11 09:49:16;;;;;;;2.88;1.67;;;;;;;34.48;35.42;100066.19;4995644;28;20120;-73
2021/07/11 09:51:47;;;;;;;1.95;1.48;;;;;;;34.87;35.05;100057.28;4995680;28;20065;-73
2021/07/11 09:54:17;;;;;;;2.20;1.30;;;;;;;34.27;37.22;100059.16;4995668;28;20026;-73
2021/07/11 09:56:49;;;;;;;4.20;1.52;;;;;;;33.85;38.68;100070.53;4996325;28;20127;-73
2021/07/11 09:59:18;;;;;;;5.43;1.73;;;;;;;33.57;38.62;100058.25;5013504;28;20034;-73
2021/07/11 10:01:49;;;;;;;3.08;1.98;;;;;;;34.58;36.43;100052.22;5013800;28;20017;-73
2021/07/11 10:04:19;;;;;;;3.75;1.65;;;;;;;34.08;36.46;100056.06;4995660;28;20139;-74
2021/07/11 10:06:47;;;;;;;6.05;1.40;;;;;;;33.24;37.50;100059.00;4995983;28;20026;-73
2021/07/11 10:09:13;;;;;;;3.05;1.92;;;;;;;34.56;35.84;100067.16;4992163;28;20085;-73
2021/07/11 10:11:41;;;;;;;4.10;1.50;;;;;;;35.26;34.94;100053.31;4992167;28;20477;-74
2021/07/11 10:14:11;;;;;;;7.88;1.52;;;;;;;34.00;36.15;100061.59;4992686;28;20045;-73
2021/07/11 10:16:38;;;;;;;3.63;1.20;;;;;;;34.06;35.17;100058.69;4996073;28;20466;-73
2021/07/11 10:19:09;;;;;;;2.72;1.27;;;;;;;34.04;34.34;100065.00;4995569;28;20038;-72
2021/07/11 10:21:37;;;;;;;2.80;1.20;;;;;;;34.78;34.81;100066.25;4995759;28;20085;-72
2021/07/11 10:24:03;;;;;;;1.80;1.23;;;;;;;33.58;36.73;100077.91;4995655;28;20030;-73
2021/07/11 10:26:40;;;;;;;1.85;1.35;;;;;;;33.65;36.54;100065.06;4995937;28;20038;-72
2021/07/11 10:29:14;;;;;;;2.72;1.55;;;;;;;33.62;36.67;100077.66;4995372;28;20031;-72
2021/07/11 10:31:48;;;;;;;5.00;1.75;;;;;;;33.06;38.76;100068.97;4995263;28;20030;-73
2021/07/11 10:34:33;;;;;;;3.00;1.60;;;;;;;32.96;39.36;100056.13;4995505;28;20444;-73
2021/07/11 10:37:11;;;;;;;2.72;1.30;;;;;;;33.22;38.71;100062.44;4995201;28;20116;-74
2021/07/11 10:39:43;;;;;;;2.70;1.40;;;;;;;33.13;37.96;100065.56;4995170;28;20041;-73
2021/07/11 10:42:10;;;;;;;2.37;1.33;;;;;;;32.95;38.94;100060.31;4995114;28;20038;-73
2021/07/11 10:44:42;;;;;;;3.67;1.45;;;;;;;33.57;36.38;100073.47;4995288;28;20277;-72
2021/07/11 10:47:21;;;;;;;2.73;1.40;;;;;;;33.24;36.95;100059.00;4995551;28;20497;-72
2021/07/11 10:49:56;;;;;;;3.20;1.42;;;;;;;33.42;37.17;100064.31;4995598;28;20038;-72
2021/07/11 10:52:28;;;;;;;5.32;2.17;;;;;;;33.56;36.76;100071.91;4994941;28;20034;-73
2021/07/11 10:54:57;;;;;;;1.75;1.27;;;;;;;32.79;40.33;100056.84;4994947;28;20034;-72
2021/07/11 10:57:34;;;;;;;4.63;1.55;;;;;;;32.78;39.64;100057.38;4994880;28;20473;-73
2021/07/11 11:00:14;;;;;;;2.97;1.73;;;;;;;33.18;39.03;100050.38;4995293;28;20034;-73
2021/07/11 11:02:45;;;;;;;4.05;2.08;;;;;;;33.19;39.25;100049.06;4994843;28;20022;-74
2021/07/11 11:05:23;;;;;;;3.67;1.67;;;;;;;33.59;38.95;100049.84;4996515;28;20034;-73
2021/07/11 11:07:55;;;;;;;3.08;1.25;;;;;;;33.60;38.58;100045.66;4996055;28;20042;-74
2021/07/11 11:10:29;;;;;;;2.50;1.52;;;;;;;34.18;37.52;100042.91;5016028;28;20026;-73
2021/07/11 11:13:19;;;;;;;1.73;1.63;;;;;;;33.60;38.34;100037.00;4997827;28;20095;-73
2021/07/11 11:15:49;;;;;;;2.67;1.60;;;;;;;33.18;39.47;100043.81;4998385;28;20026;-73
2021/07/11 11:18:22;;;;;;;4.30;1.95;;;;;;;32.65;39.61;100037.69;4997699;28;20030;-73
2021/07/11 11:21:09;;;;;;;3.33;1.30;;;;;;;33.01;39.34;100041.72;4998520;28;20030;-72
2021/07/11 11:23:46;;;;;;;4.05;1.48;;;;;;;33.44;37.90;100043.59;4984654;28;20040;-72
2021/07/11 11:26:22;;;;;;;3.95;1.50;;;;;;;33.52;37.41;100045.41;4997790;28;20385;-73
2021/07/11 11:28:55;;;;;;;5.10;1.48;;;;;;;33.80;36.80;100033.81;4997659;28;20114;-72
2021/07/11 11:31:33;;;;;;;5.60;1.38;;;;;;;33.83;36.88;100038.53;4997684;28;20030;-73
2021/07/11 11:34:02;;;;;;;3.60;1.65;;;;;;;33.87;36.11;100033.25;4997737;28;20034;-73
2021/07/11 11:36:35;;;;;;;2.90;1.10;;;;;;;33.77;36.64;100037.78;4997975;28;20030;-72
2021/07/11 11:39:07;;;;;;;2.42;1.13;;;;;;;34.07;35.85;100034.28;4997634;28;20030;-72
2021/07/11 11:41:33;;;;;;;;;;;;;;;33.71;36.40;100027.53;4998262;28;20060;-73
2021/07/11 11:44:15;;;;;;;5.18;1.20;;;;;;;33.66;36.54;100031.22;4998170;28;19914;-73